Time;durP1;ratioP1;P1;durP2;ratioP2;P2;SDS_P1;SDS_P2;PMS_P1;PMS_P2;Temp;Humidity;BMP_temperature;BMP_pressure;BME280_temperature;BME280_humidity;BME280_pressure;Samples;Min_cycle;Max_cycle;Signal;HPM_P1;HPM_P2
2023/06/30 00:01:32;;;;;;;5.25;1.50;;;;;;;;;;5007612;28;20028;-77
2023/06/30 00:03:57;;;;;;;6.40;1.70;;;;;;;;;;5000199;28;20034;-77
2023/06/30 00:06:23;;;;;;;6.32;1.80;;;;;;;;;;5012646;28;20053;-77
2023/06/30 00:08:49;;;;;;;8.05;1.98;;;;;;;;;;5013853;28;20088;-77
2023/06/30 00:11:16;;;;;;;5.15;1.60;;;;;;;;;;5003971;28;20480;-77
2023/06/30 00:13:43;;;;;;;3.97;2.00;;;;;;;;;;5003745;28;20029;-77
2023/06/30 00:16:08;;;;;;;5.88;1.80;;;;;;;;;;5017804;28;20076;-77
2023/06/30 00:18:34;;;;;;;5.28;1.60;;;;;;;;;;5012634;28;20034;-77
2023/06/30 00:20:59;;;;;;;9.45;1.77;;;;;;;;;;5011431;28;20061;-77
2023/06/30 00:23:28;;;;;;;5.97;1.48;;;;;;;;;;5001273;28;20062;-77
2023/06/30 00:25:54;;;;;;;5.97;1.80;;;;;;;;;;4998451;28;20116;-77
2023/06/30 00:28:20;;;;;;;4.03;1.70;;;;;;;;;;5024984;28;20055;-77
2023/06/30 00:30:45;;;;;;;5.68;1.83;;;;;;;;;;5018241;28;20068;-77
2023/06/30 00:33:11;;;;;;;3.70;1.48;;;;;;;;;;5017468;28;20044;-77
2023/06/30 00:35:36;;;;;;;4.57;1.77;;;;;;;;;;5028240;28;20032;-77
2023/06/30 00:38:02;;;;;;;6.22;1.80;;;;;;;;;;5021895;28;20037;-77
2023/06/30 00:40:27;;;;;;;5.95;1.58;;;;;;;;;;5006373;28;20113;-77
2023/06/30 00:42:52;;;;;;;5.95;2.13;;;;;;;;;;5020175;28;20021;-77
2023/06/30 00:45:18;;;;;;;6.35;2.35;;;;;;;;;;5024202;28;20490;-77
2023/06/30 00:47:43;;;;;;;5.35;1.70;;;;;;;;;;5025896;28;20116;-77
2023/06/30 00:50:10;;;;;;;9.45;2.05;;;;;;;;;;5026207;28;20030;-77
2023/06/30 00:52:35;;;;;;;7.57;1.88;;;;;;;;;;4998010;28;20478;-77
2023/06/30 00:55:01;;;;;;;9.65;2.20;;;;;;;;;;5024535;28;20022;-77
2023/06/30 00:57:26;;;;;;;7.18;1.88;;;;;;;;;;5021890;28;20117;-77
2023/06/30 00:59:51;;;;;;;8.07;1.90;;;;;;;;;;5023186;28;20026;-77
2023/06/30 01:02:22;;;;;;;5.70;1.80;;;;;;;;;;5000793;28;20062;-77
2023/06/30 01:05:02;;;;;;;7.78;1.98;;;;;;;;;;5019678;28;20057;-77
2023/06/30 01:07:51;;;;;;;7.40;1.50;;;;;;;;;;5023079;28;20113;-77
2023/06/30 01:10:23;;;;;;;4.45;1.60;;;;;;;;;;5019902;28;20022;-77
2023/06/30 01:12:49;;;;;;;3.30;1.17;;;;;;;;;;5020226;28;20026;-77
2023/06/30 01:15:15;;;;;;;5.72;1.85;;;;;;;;;;5023509;28;20087;-77
2023/06/30 01:18:01;;;;;;;4.57;1.67;;;;;;;;;;5003986;28;20033;-77
2023/06/30 01:20:33;;;;;;;3.53;1.40;;;;;;;;;;5000109;28;20036;-77
2023/06/30 01:23:15;;;;;;;5.65;1.85;;;;;;;;;;5000718;28;20049;-77
2023/06/30 01:25:41;;;;;;;5.93;1.65;;;;;;;;;;5016527;28;20033;-77
2023/06/30 01:28:07;;;;;;;6.00;2.05;;;;;;;;;;5018272;28;20029;-77
2023/06/30 01:30:33;;;;;;;3.33;1.45;;;;;;;;;;5022112;28;20377;-77
2023/06/30 01:32:59;;;;;;;3.90;1.38;;;;;;;;;;5001952;28;20030;-77
2023/06/30 01:35:26;;;;;;;5.53;1.38;;;;;;;;;;5026552;28;20057;-77
2023/06/30 01:37:53;;;;;;;6.07;1.50;;;;;;;;;;5022569;28;20482;-77
2023/06/30 01:40:19;;;;;;;3.83;1.40;;;;;;;;;;5023310;28;20030;-77
2023/06/30 01:42:45;;;;;;;3.67;1.40;;;;;;;;;;5020724;28;20034;-77
2023/06/30 01:45:12;;;;;;;4.38;1.35;;;;;;;;;;5025019;28;20080;-77
2023/06/30 01:47:37;;;;;;;4.82;1.17;;;;;;;;;;5000824;28;20030;-77
2023/06/30 01:50:03;;;;;;;4.22;1.42;;;;;;;;;;5021567;28;20155;-77
2023/06/30 01:52:29;;;;;;;2.85;1.27;;;;;;;;;;5021115;28;20099;-77
2023/06/30 01:54:54;;;;;;;5.63;1.60;;;;;;;;;;5005480;28;20034;-77
2023/06/30 01:57:20;;;;;;;4.13;1.60;;;;;;;;;;5022038;28;20108;-77
2023/06/30 01:59:45;;;;;;;5.93;1.42;;;;;;;;;;5018113;28;20739;-77
2023/06/30 02:02:11;;;;;;;6.10;1.55;;;;;;;;;;5018839;28;20021;-77
2023/06/30 02:04:36;;;;;;;3.78;1.50;;;;;;;;;;5021657;28;20518;-77
2023/06/30 02:07:02;;;;;;;5.30;1.85;;;;;;;;;;5009719;28;20083;-77
2023/06/30 02:09:27;;;;;;;6.03;2.20;;;;;;;;;;5026530;28;20152;-77
2023/06/30 02:11:53;;;;;;;7.47;2.15;;;;;;;;;;5003484;28;20453;-77
2023/06/30 02:14:18;;;;;;;4.63;1.63;;;;;;;;;;5023640;28;20021;-77
2023/06/30 02:16:43;;;;;;;5.07;1.90;;;;;;;;;;5002962;28;20032;-77
2023/06/30 02:19:09;;;;;;;3.55;1.80;;;;;;;;;;5022087;28;20536;-77
2023/06/30 02:21:34;;;;;;;4.97;2.00;;;;;;;;;;5022520;28;20036;-77
2023/06/30 02:24:00;;;;;;;3.80;1.90;;;;;;;;;;5004945;28;20025;-77
2023/06/30 02:26:25;;;;;;;5.10;1.90;;;;;;;;;;5018059;28;20039;-77
2023/06/30 02:28:51;;;;;;;5.93;2.03;;;;;;;;;;5001871;28;20029;-77
2023/06/30 02:31:16;;;;;;;3.90;1.75;;;;;;;;;;5020859;28;20492;-77
2023/06/30 02:33:42;;;;;;;5.15;1.92;;;;;;;;;;5021152;28;20033;-77
2023/06/30 02:36:07;;;;;;;3.55;1.77;;;;;;;;;;5015421;28;20441;-77
2023/06/30 02:38:32;;;;;;;6.25;2.10;;;;;;;;;;5017273;28;20064;-77
2023/06/30 02:40:58;;;;;;;5.18;1.63;;;;;;;;;;5005013;28;20029;-77
2023/06/30 02:43:23;;;;;;;4.93;1.80;;;;;;;;;;5019522;28;20018;-77
2023/06/30 02:45:49;;;;;;;3.45;1.70;;;;;;;;;;5017367;28;20083;-77
2023/06/30 02:48:14;;;;;;;3.42;1.60;;;;;;;;;;5016072;28;20508;-77
2023/06/30 02:50:39;;;;;;;4.35;1.90;;;;;;;;;;5021812;28;20033;-77
2023/06/30 02:53:05;;;;;;;4.82;1.60;;;;;;;;;;5000198;28;20030;-77
2023/06/30 02:55:32;;;;;;;4.07;1.50;;;;;;;;;;5013996;28;20033;-77
2023/06/30 02:57:57;;;;;;;3.95;1.67;;;;;;;;;;5017026;28;20057;-77
2023/06/30 03:00:23;;;;;;;4.25;1.58;;;;;;;;;;5017354;28;20053;-77
2023/06/30 03:02:48;;;;;;;3.25;1.40;;;;;;;;;;5017169;28;20484;-77
2023/06/30 03:05:14;;;;;;;2.67;1.40;;;;;;;;;;5001977;28;20029;-77
2023/06/30 03:07:39;;;;;;;5.05;1.58;;;;;;;;;;5016011;28;20056;-77
2023/06/30 03:10:05;;;;;;;3.85;1.38;;;;;;;;;;5018332;28;20036;-77
2023/06/30 03:12:30;;;;;;;4.53;1.50;;;;;;;;;;5020982;28;20022;-77
2023/06/30 03:14:56;;;;;;;3.90;1.70;;;;;;;;;;5007456;28;20032;-77
2023/06/30 03:17:21;;;;;;;4.13;1.60;;;;;;;;;;5019096;28;20029;-77
2023/06/30 03:19:46;;;;;;;3.50;1.52;;;;;;;;;;5003933;28;20075;-77
2023/06/30 03:22:12;;;;;;;3.22;1.50;;;;;;;;;;5013221;28;20099;-77
2023/06/30 03:24:38;;;;;;;2.90;1.55;;;;;;;;;;5025394;28;20017;-77
2023/06/30 03:27:04;;;;;;;3.55;1.67;;;;;;;;;;5014091;28;20547;-77
2023/06/30 03:29:29;;;;;;;3.92;1.58;;;;;;;;;;5017807;28;20033;-77
2023/06/30 03:31:54;;;;;;;3.97;1.80;;;;;;;;;;4996794;28;20021;-77
2023/06/30 03:34:20;;;;;;;3.70;1.65;;;;;;;;;;5015636;28;20029;-77
2023/06/30 03:36:45;;;;;;;4.00;2.00;;;;;;;;;;5014737;28;20128;-77
2023/06/30 03:39:11;;;;;;;4.25;1.67;;;;;;;;;;5001382;28;20175;-77
2023/06/30 03:41:36;;;;;;;3.97;1.70;;;;;;;;;;5022305;28;20030;-77
2023/06/30 03:44:02;;;;;;;3.47;1.83;;;;;;;;;;5022828;28;20470;-77
2023/06/30 03:46:27;;;;;;;3.55;1.58;;;;;;;;;;4997123;28;20041;-77
2023/06/30 03:48:52;;;;;;;3.72;1.80;;;;;;;;;;5022540;28;20028;-77
2023/06/30 03:51:18;;;;;;;6.13;2.25;;;;;;;;;;5018402;28;20029;-77
2023/06/30 03:53:43;;;;;;;3.28;1.67;;;;;;;;;;5001354;28;20531;-77
2023/06/30 03:56:09;;;;;;;3.28;1.85;;;;;;;;;;5000446;28;20132;-77
2023/06/30 03:58:35;;;;;;;3.33;1.73;;;;;;;;;;5000950;28;20034;-77
2023/06/30 04:01:00;;;;;;;3.35;1.70;;;;;;;;;;5015936;28;20026;-77
2023/06/30 04:03:26;;;;;;;5.13;1.80;;;;;;;;;;5017413;28;20105;-76
2023/06/30 04:05:53;;;;;;;4.20;1.90;;;;;;;;;;5017189;28;20558;-77
2023/06/30 04:08:18;;;;;;;3.58;1.98;;;;;;;;;;5025168;28;20466;-77
2023/06/30 04:10:44;;;;;;;3.95;1.90;;;;;;;;;;5018923;28;20079;-77
2023/06/30 04:13:09;;;;;;;3.70;2.08;;;;;;;;;;5021253;28;20034;-77
2023/06/30 04:15:35;;;;;;;4.07;1.90;;;;;;;;;;5019284;28;20611;-77
2023/06/30 04:18:01;;;;;;;7.07;2.75;;;;;;;;;;5026777;28;20033;-77
2023/06/30 04:20:26;;;;;;;4.97;2.40;;;;;;;;;;5018987;28;20021;-77
2023/06/30 04:22:51;;;;;;;6.55;2.42;;;;;;;;;;5026335;28;20021;-77
2023/06/30 04:25:17;;;;;;;4.32;2.40;;;;;;;;;;5019908;28;20079;-77
2023/06/30 04:27:43;;;;;;;5.63;2.50;;;;;;;;;;5021175;28;20045;-77
2023/06/30 04:30:09;;;;;;;3.92;2.40;;;;;;;;;;5022373;28;20172;-77
2023/06/30 04:32:34;;;;;;;5.22;2.30;;;;;;;;;;5019325;28;20406;-76
2023/06/30 04:35:00;;;;;;;5.35;2.40;;;;;;;;;;5012460;28;20033;-77
2023/06/30 04:37:31;;;;;;;4.03;2.13;;;;;;;;;;5001175;28;20033;-77
2023/06/30 04:39:57;;;;;;;3.17;2.15;;;;;;;;;;5018719;28;20091;-76
2023/06/30 04:42:23;;;;;;;5.75;2.10;;;;;;;;;;5017010;28;20351;-77
2023/06/30 04:44:48;;;;;;;7.55;2.28;;;;;;;;;;5018315;28;20064;-77
2023/06/30 04:47:16;;;;;;;4.18;2.40;;;;;;;;;;5015930;28;20079;-76
2023/06/30 04:49:42;;;;;;;6.00;1.98;;;;;;;;;;5027537;28;20382;-76
2023/06/30 04:52:07;;;;;;;5.03;2.30;;;;;;;;;;5020358;28;20022;-76
2023/06/30 04:54:33;;;;;;;7.38;2.60;;;;;;;;;;5025713;28;20034;-77
2023/06/30 04:56:58;;;;;;;5.22;2.42;;;;;;;;;;5020314;28;20485;-76
2023/06/30 04:59:23;;;;;;;7.25;2.50;;;;;;;;;;5025004;28;20033;-77
2023/06/30 05:01:49;;;;;;;5.10;2.45;;;;;;;;;;4996793;28;20083;-76
2023/06/30 05:04:15;;;;;;;4.68;2.30;;;;;;;;;;5017834;28;20022;-76
2023/06/30 05:06:40;;;;;;;6.22;2.28;;;;;;;;;;4997261;28;20040;-76
2023/06/30 05:09:06;;;;;;;7.30;2.65;;;;;;;;;;5023256;28;20029;-76
2023/06/30 05:11:31;;;;;;;5.43;2.22;;;;;;;;;;4998218;28;20022;-76
2023/06/30 05:13:57;;;;;;;4.25;2.17;;;;;;;;;;5018432;28;20033;-76
2023/06/30 05:16:23;;;;;;;5.53;2.20;;;;;;;;;;5015683;28;20029;-76
2023/06/30 05:18:48;;;;;;;4.85;2.60;;;;;;;;;;5000909;28;20026;-76
2023/06/30 05:21:14;;;;;;;4.00;2.10;;;;;;;;;;5005258;28;20609;-76
2023/06/30 05:23:39;;;;;;;5.82;2.50;;;;;;;;;;5021765;28;20025;-76
2023/06/30 05:26:05;;;;;;;7.53;2.50;;;;;;;;;;5000842;28;20032;-76
2023/06/30 05:28:31;;;;;;;6.55;2.40;;;;;;;;;;5019357;28;20036;-76
2023/06/30 05:30:56;;;;;;;6.05;2.40;;;;;;;;;;5024020;28;20104;-76
2023/06/30 05:33:21;;;;;;;6.10;2.55;;;;;;;;;;5000765;28;20030;-76
2023/06/30 05:35:47;;;;;;;4.68;2.20;;;;;;;;;;5014694;28;20061;-77
2023/06/30 05:38:12;;;;;;;5.60;2.40;;;;;;;;;;5022249;28;20028;-76
2023/06/30 05:40:38;;;;;;;4.13;2.00;;;;;;;;;;5017422;28;20022;-76
2023/06/30 05:43:03;;;;;;;5.90;2.17;;;;;;;;;;5006122;28;20022;-76
2023/06/30 05:45:28;;;;;;;5.18;2.20;;;;;;;;;;5027130;28;20021;-76
2023/06/30 05:47:54;;;;;;;7.10;2.65;;;;;;;;;;5014483;28;20025;-76
2023/06/30 05:50:21;;;;;;;5.18;1.98;;;;;;;;;;5015523;28;20544;-76
2023/06/30 05:52:48;;;;;;;5.70;2.60;;;;;;;;;;5017143;28;20527;-77
2023/06/30 05:55:13;;;;;;;4.38;2.25;;;;;;;;;;5018578;28;20025;-77
2023/06/30 05:57:38;;;;;;;4.80;2.22;;;;;;;;;;4997948;28;20360;-77
2023/06/30 06:00:05;;;;;;;3.55;2.13;;;;;;;;;;5010852;28;20334;-77
2023/06/30 06:02:31;;;;;;;5.40;2.25;;;;;;;;;;5016860;28;21649;-77
2023/06/30 06:04:56;;;;;;;4.47;2.25;;;;;;;;;;5009623;28;20086;-77
2023/06/30 06:07:21;;;;;;;5.28;2.15;;;;;;;;;;5013608;28;20481;-77
2023/06/30 06:09:47;;;;;;;4.03;1.95;;;;;;;;;;4993452;28;20053;-76
2023/06/30 06:12:12;;;;;;;5.65;2.17;;;;;;;;;;5019777;28;20029;-76
2023/06/30 06:14:37;;;;;;;5.45;1.95;;;;;;;;;;4998526;28;20026;-76
2023/06/30 06:17:03;;;;;;;3.80;2.00;;;;;;;;;;5011462;28;20040;-76
2023/06/30 06:19:28;;;;;;;4.85;2.00;;;;;;;;;;5017330;28;20017;-77
2023/06/30 06:21:54;;;;;;;4.07;2.05;;;;;;;;;;4996280;28;20110;-76
2023/06/30 06:24:19;;;;;;;4.70;1.65;;;;;;;;;;5020588;28;20022;-76
2023/06/30 06:26:45;;;;;;;6.57;2.40;;;;;;;;;;5013401;28;20120;-76
2023/06/30 06:29:14;;;;;;;4.72;1.92;;;;;;;;;;5000593;28;20028;-76
2023/06/30 06:31:39;;;;;;;8.38;2.72;;;;;;;;;;5025074;28;20305;-76
2023/06/30 06:34:05;;;;;;;3.53;1.55;;;;;;;;;;4998825;28;20046;-76
2023/06/30 06:36:30;;;;;;;5.28;1.88;;;;;;;;;;5003231;28;20026;-76
2023/06/30 06:38:56;;;;;;;4.75;1.58;;;;;;;;;;4999285;28;20025;-76
2023/06/30 06:41:21;;;;;;;6.25;2.53;;;;;;;;;;4996644;28;20025;-76
2023/06/30 06:43:46;;;;;;;5.97;1.98;;;;;;;;;;5011347;28;20017;-76
2023/06/30 06:46:12;;;;;;;3.58;1.65;;;;;;;;;;5011100;28;20386;-76
2023/06/30 06:48:38;;;;;;;4.05;1.90;;;;;;;;;;4998949;28;20030;-76
2023/06/30 06:51:03;;;;;;;5.53;1.80;;;;;;;;;;5002527;28;20021;-76
2023/06/30 06:53:32;;;;;;;5.65;1.65;;;;;;;;;;4993192;28;20538;-76
2023/06/30 06:55:58;;;;;;;4.00;1.52;;;;;;;;;;4990053;28;20040;-76
2023/06/30 06:58:25;;;;;;;5.10;2.17;;;;;;;;;;4996546;28;20025;-77
2023/06/30 07:00:51;;;;;;;4.40;1.55;;;;;;;;;;5018879;28;20033;-77
2023/06/30 07:03:18;;;;;;;5.22;1.80;;;;;;;;;;5019154;28;20481;-77
2023/06/30 07:05:45;;;;;;;3.83;1.50;;;;;;;;;;5009051;28;20075;-77
2023/06/30 07:08:11;;;;;;;4.18;1.83;;;;;;;;;;5003009;28;20029;-77
2023/06/30 07:10:36;;;;;;;3.38;1.38;;;;;;;;;;5016343;28;20025;-77
2023/06/30 07:13:03;;;;;;;3.35;1.50;;;;;;;;;;4998815;28;20053;-77
2023/06/30 07:15:29;;;;;;;4.53;1.48;;;;;;;;;;5002359;28;20121;-77
2023/06/30 07:17:55;;;;;;;3.85;1.30;;;;;;;;;;5018400;28;20545;-77
2023/06/30 07:20:21;;;;;;;3.80;1.50;;;;;;;;;;5009099;28;20017;-77
2023/06/30 07:22:46;;;;;;;2.63;1.20;;;;;;;;;;5016047;28;20026;-77
2023/06/30 07:25:13;;;;;;;3.17;1.30;;;;;;;;;;5015954;28;20441;-78
2023/06/30 07:27:39;;;;;;;2.67;1.13;;;;;;;;;;5009948;28;20045;-78
2023/06/30 07:30:06;;;;;;;3.83;1.30;;;;;;;;;;5018625;28;20034;-77
2023/06/30 07:32:33;;;;;;;3.88;1.40;;;;;;;;;;5011280;28;20030;-77
2023/06/30 07:34:58;;;;;;;2.90;1.27;;;;;;;;;;5012029;28;20053;-78
2023/06/30 07:37:24;;;;;;;3.60;1.75;;;;;;;;;;4994195;28;20064;-78
2023/06/30 07:39:49;;;;;;;4.30;1.55;;;;;;;;;;5020412;28;20025;-78
2023/06/30 07:42:15;;;;;;;3.42;1.30;;;;;;;;;;5004494;28;20473;-76
2023/06/30 07:44:41;;;;;;;4.03;1.75;;;;;;;;;;5014083;28;20034;-77
2023/06/30 07:47:06;;;;;;;3.55;1.20;;;;;;;;;;5018560;28;20036;-77
2023/06/30 07:49:31;;;;;;;3.17;1.30;;;;;;;;;;5011221;28;20025;-77
2023/06/30 07:51:57;;;;;;;3.45;1.25;;;;;;;;;;4999936;28;20064;-77
2023/06/30 07:54:22;;;;;;;3.75;1.10;;;;;;;;;;4994858;28;20041;-77
2023/06/30 07:56:48;;;;;;;3.45;1.33;;;;;;;;;;5017572;28;20037;-77
2023/06/30 07:59:13;;;;;;;3.40;1.30;;;;;;;;;;5010851;28;20022;-75
2023/06/30 08:01:38;;;;;;;2.50;1.20;;;;;;;;;;5009395;28;20025;-76
2023/06/30 08:04:04;;;;;;;3.65;1.27;;;;;;;;;;4996175;28;20037;-78
2023/06/30 08:06:29;;;;;;;3.70;1.48;;;;;;;;;;5012090;28;20041;-76
2023/06/30 08:08:55;;;;;;;3.50;1.60;;;;;;;;;;5007236;28;20045;-77
2023/06/30 08:11:20;;;;;;;4.65;1.58;;;;;;;;;;5013669;28;20033;-78
2023/06/30 08:13:45;;;;;;;3.25;1.50;;;;;;;;;;5010012;28;20552;-77
2023/06/30 08:16:11;;;;;;;2.45;1.60;;;;;;;;;;5010017;28;20076;-77
2023/06/30 08:18:36;;;;;;;3.55;1.60;;;;;;;;;;5019482;28;20036;-78
2023/06/30 08:21:02;;;;;;;4.68;1.77;;;;;;;;;;5013759;28;20038;-78
2023/06/30 08:23:28;;;;;;;5.03;1.67;;;;;;;;;;5014959;28;20033;-75
2023/06/30 08:25:55;;;;;;;3.45;1.65;;;;;;;;;;5015416;28;20526;-76
2023/06/30 08:28:21;;;;;;;4.50;1.20;;;;;;;;;;5006870;28;20059;-78
2023/06/30 08:30:47;;;;;;;3.63;1.20;;;;;;;;;;5017649;28;20470;-78
2023/06/30 08:33:12;;;;;;;3.75;1.00;;;;;;;;;;5016312;28;20100;-75
2023/06/30 08:35:38;;;;;;;4.20;1.50;;;;;;;;;;4999850;28;20049;-78
2023/06/30 08:38:04;;;;;;;2.40;1.23;;;;;;;;;;5005369;28;20096;-77
2023/06/30 08:40:31;;;;;;;5.35;1.50;;;;;;;;;;5000568;28;20045;-77
2023/06/30 08:43:05;;;;;;;4.57;1.40;;;;;;;;;;5018699;28;20033;-77
2023/06/30 08:45:31;;;;;;;2.38;1.10;;;;;;;;;;5018312;28;20390;-77
2023/06/30 08:48:04;;;;;;;2.20;1.17;;;;;;;;;;5015713;28;20026;-76
2023/06/30 08:50:31;;;;;;;2.05;1.10;;;;;;;;;;5000761;28;20104;-78
2023/06/30 08:52:58;;;;;;;4.15;1.20;;;;;;;;;;5016853;28;20037;-76
2023/06/30 08:55:25;;;;;;;2.95;1.13;;;;;;;;;;5016588;28;20018;-78
2023/06/30 08:57:57;;;;;;;5.45;1.48;;;;;;;;;;5018092;28;20032;-78
2023/06/30 09:00:24;;;;;;;3.95;1.40;;;;;;;;;;5002188;28;20124;-76
2023/06/30 09:02:50;;;;;;;4.38;1.70;;;;;;;;;;4999722;28;20551;-78
2023/06/30 09:05:16;;;;;;;4.30;2.00;;;;;;;;;;5017979;28;20017;-76
2023/06/30 09:07:57;;;;;;;3.50;1.75;;;;;;;;;;5017079;28;20026;-78
2023/06/30 09:10:36;;;;;;;4.00;1.85;;;;;;;;;;5016950;28;20025;-80
2023/06/30 09:13:03;;;;;;;4.53;1.80;;;;;;;;;;5005677;28;20033;-80
2023/06/30 09:15:30;;;;;;;5.68;2.90;;;;;;;;;;5019389;28;20029;-79
2023/06/30 09:17:56;;;;;;;5.18;2.70;;;;;;;;;;5016645;28;20018;-79
2023/06/30 09:20:21;;;;;;;6.70;2.53;;;;;;;;;;5017697;28;20073;-79
2023/06/30 09:22:47;;;;;;;5.93;2.08;;;;;;;;;;4999969;28;20533;-78
2023/06/30 09:25:24;;;;;;;3.42;2.17;;;;;;;;;;5022529;28;20477;-79
2023/06/30 09:27:50;;;;;;;5.18;2.42;;;;;;;;;;5016242;28;20102;-79
2023/06/30 09:30:15;;;;;;;5.20;2.65;;;;;;;;;;4998783;28;20478;-79
2023/06/30 09:32:41;;;;;;;5.80;2.72;;;;;;;;;;5017526;28;20167;-79
2023/06/30 09:35:08;;;;;;;4.53;2.50;;;;;;;;;;4997339;28;20389;-77
2023/06/30 09:37:44;;;;;;;5.28;2.55;;;;;;;;;;5013501;28;20406;-79
2023/06/30 09:40:16;;;;;;;5.40;2.70;;;;;;;;;;5013442;28;20022;-80
2023/06/30 09:42:44;;;;;;;5.73;2.63;;;;;;;;;;5014504;28;20619;-79
2023/06/30 09:45:13;;;;;;;12.45;3.85;;;;;;;;;;5003983;28;20516;-80
2023/06/30 09:47:39;;;;;;;7.90;3.13;;;;;;;;;;5017465;28;20082;-79
2023/06/30 09:50:05;;;;;;;7.40;3.13;;;;;;;;;;5019054;28;20025;-79
2023/06/30 09:52:32;;;;;;;4.70;2.35;;;;;;;;;;5016835;28;20534;-79
2023/06/30 09:54:58;;;;;;;7.45;2.30;;;;;;;;;;5017935;28;20026;-79
2023/06/30 09:57:29;;;;;;;3.45;1.90;;;;;;;;;;5023672;28;20037;-79
2023/06/30 09:59:58;;;;;;;2.85;1.83;;;;;;;;;;5026382;28;20067;-80
2023/06/30 10:02:24;;;;;;;5.32;2.08;;;;;;;;;;5013200;28;20091;-79
2023/06/30 10:04:49;;;;;;;3.47;1.60;;;;;;;;;;4997020;28;20060;-78
2023/06/30 10:07:15;;;;;;;4.10;2.00;;;;;;;;;;5024038;28;20036;-80
2023/06/30 10:09:43;;;;;;;4.82;1.77;;;;;;;;;;5004303;28;20037;-79
2023/06/30 10:12:09;;;;;;;4.07;1.73;;;;;;;;;;5019959;28;20474;-80
2023/06/30 10:14:37;;;;;;;5.32;1.77;;;;;;;;;;5019454;28;20039;-79
2023/06/30 10:17:05;;;;;;;4.95;1.70;;;;;;;;;;4999391;28;20030;-79
2023/06/30 10:19:32;;;;;;;5.18;1.95;;;;;;;;;;5024132;28;20042;-79
2023/06/30 10:21:58;;;;;;;4.95;1.90;;;;;;;;;;5015043;28;20030;-80
2023/06/30 10:24:27;;;;;;;3.05;1.50;;;;;;;;;;5019259;28;20107;-79
2023/06/30 10:26:58;;;;;;;4.95;1.90;;;;;;;;;;4992113;28;20040;-79
2023/06/30 10:29:23;;;;;;;3.10;1.52;;;;;;;;;;5001254;28;20025;-80
2023/06/30 10:31:49;;;;;;;3.42;1.60;;;;;;;;;;5014717;28;20040;-79
2023/06/30 10:34:15;;;;;;;3.03;1.52;;;;;;;;;;5013408;28;20033;-79
2023/06/30 10:36:42;;;;;;;4.20;1.45;;;;;;;;;;5000111;28;20049;-80
2023/06/30 10:39:09;;;;;;;4.70;1.50;;;;;;;;;;5018468;28;20021;-80
2023/06/30 10:41:48;;;;;;;3.92;1.80;;;;;;;;;;5012835;28;20033;-80
2023/06/30 10:44:14;;;;;;;3.45;1.65;;;;;;;;;;5015707;28;20405;-80
2023/06/30 10:46:39;;;;;;;3.20;1.38;;;;;;;;;;5003909;28;20116;-80
2023/06/30 10:49:05;;;;;;;3.00;1.50;;;;;;;;;;5014656;28;20038;-80
2023/06/30 10:51:35;;;;;;;5.63;1.90;;;;;;;;;;5018430;28;20041;-79
2023/06/30 10:54:01;;;;;;;3.88;1.55;;;;;;;;;;4998861;28;20037;-78
2023/06/30 10:56:28;;;;;;;2.13;1.33;;;;;;;;;;4992650;28;20520;-80
2023/06/30 10:58:57;;;;;;;6.43;1.80;;;;;;;;;;4996468;28;20026;-80
2023/06/30 11:01:22;;;;;;;2.75;1.77;;;;;;;;;;5016705;28;20017;-80
2023/06/30 11:03:57;;;;;;;4.28;1.75;;;;;;;;;;5018399;28;20103;-80
2023/06/30 11:06:23;;;;;;;4.07;2.03;;;;;;;;;;5013445;28;20429;-81
2023/06/30 11:09:00;;;;;;;4.93;2.10;;;;;;;;;;5016356;28;20433;-81
2023/06/30 11:11:27;;;;;;;3.72;2.10;;;;;;;;;;5018816;28;20029;-77
2023/06/30 11:14:06;;;;;;;3.80;2.25;;;;;;;;;;5021514;28;20478;-80
2023/06/30 11:17:04;;;;;;;5.47;2.10;;;;;;;;;;4996188;28;20082;-80
2023/06/30 11:19:29;;;;;;;4.05;2.38;;;;;;;;;;5011037;28;20512;-79
2023/06/30 11:22:20;;;;;;;4.05;2.10;;;;;;;;;;5002502;28;20025;-80
2023/06/30 11:24:46;;;;;;;5.82;1.95;;;;;;;;;;4997132;28;20033;-80
2023/06/30 11:27:12;;;;;;;4.65;2.38;;;;;;;;;;5007673;28;20030;-80
2023/06/30 11:29:39;;;;;;;4.90;1.90;;;;;;;;;;4999310;28;20026;-80
2023/06/30 11:32:04;;;;;;;4.85;1.85;;;;;;;;;;5013845;28;20033;-81
2023/06/30 11:34:30;;;;;;;3.67;1.70;;;;;;;;;;5015108;28;20041;-81
2023/06/30 11:36:56;;;;;;;5.22;1.80;;;;;;;;;;5017564;28;20104;-80
2023/06/30 11:39:21;;;;;;;3.83;1.88;;;;;;;;;;5020751;28;20048;-80
2023/06/30 11:41:46;;;;;;;4.70;2.05;;;;;;;;;;5018379;28;20033;-76
2023/06/30 11:44:12;;;;;;;5.30;1.90;;;;;;;;;;5012129;28;20029;-75
2023/06/30 11:46:39;;;;;;;3.03;1.90;;;;;;;;;;5018732;28;20029;-75
2023/06/30 11:49:04;;;;;;;4.82;1.83;;;;;;;;;;5015206;28;20462;-75
2023/06/30 11:51:31;;;;;;;4.53;2.10;;;;;;;;;;5016016;28;20025;-75
2023/06/30 11:53:57;;;;;;;3.03;1.67;;;;;;;;;;4996453;28;20084;-75
2023/06/30 11:56:22;;;;;;;3.75;1.70;;;;;;;;;;5021397;28;20045;-75
2023/06/30 11:58:49;;;;;;;4.07;1.70;;;;;;;;;;5018717;28;20103;-75
2023/06/30 12:01:14;;;;;;;6.43;1.70;;;;;;;;;;5017921;28;20482;-75
2023/06/30 12:03:40;;;;;;;4.07;1.77;;;;;;;;;;4995188;28;20095;-76
2023/06/30 12:06:06;;;;;;;3.92;1.40;;;;;;;;;;5011518;28;20038;-75
2023/06/30 12:08:35;;;;;;;5.20;2.00;;;;;;;;;;5002530;28;20029;-75
2023/06/30 12:11:03;;;;;;;2.80;1.80;;;;;;;;;;5015341;28;20026;-75
2023/06/30 12:13:28;;;;;;;4.40;2.00;;;;;;;;;;5015259;28;20768;-75
2023/06/30 12:15:57;;;;;;;5.07;2.25;;;;;;;;;;4997930;28;20133;-74
2023/06/30 12:18:37;;;;;;;3.75;1.92;;;;;;;;;;5002258;28;20072;-75
2023/06/30 12:21:10;;;;;;;2.42;1.55;;;;;;;;;;5014281;28;20037;-75
2023/06/30 12:23:40;;;;;;;4.05;1.63;;;;;;;;;;5017477;28;20032;-75
2023/06/30 12:26:06;;;;;;;7.05;1.85;;;;;;;;;;4995831;28;20148;-75
2023/06/30 12:28:31;;;;;;;5.10;1.90;;;;;;;;;;5013362;28;20034;-77
2023/06/30 12:30:57;;;;;;;4.53;2.10;;;;;;;;;;5016440;28;20026;-75
2023/06/30 12:33:22;;;;;;;7.65;2.20;;;;;;;;;;5018085;28;20131;-75
2023/06/30 12:35:49;;;;;;;6.10;2.40;;;;;;;;;;4999151;28;20062;-75
2023/06/30 12:38:15;;;;;;;4.57;2.40;;;;;;;;;;5015444;28;20749;-75
2023/06/30 12:40:40;;;;;;;5.68;2.58;;;;;;;;;;5017063;28;20038;-76
2023/06/30 12:43:06;;;;;;;5.13;2.60;;;;;;;;;;4997236;28;20509;-76
2023/06/30 12:45:31;;;;;;;6.35;2.80;;;;;;;;;;5020463;28;20029;-74
2023/06/30 12:47:56;;;;;;;6.47;2.92;;;;;;;;;;5018458;28;20497;-75
2023/06/30 12:50:22;;;;;;;4.80;2.78;;;;;;;;;;5000338;28;20033;-76
2023/06/30 12:52:48;;;;;;;5.75;3.13;;;;;;;;;;5016070;28;20056;-75
2023/06/30 12:55:14;;;;;;;6.22;3.30;;;;;;;;;;5013415;28;20445;-74
2023/06/30 12:57:42;;;;;;;5.13;2.58;;;;;;;;;;5019262;28;20609;-75
2023/06/30 13:00:09;;;;;;;4.30;2.05;;;;;;;;;;5020071;28;20045;-74
2023/06/30 13:02:35;;;;;;;5.07;2.95;;;;;;;;;;5021169;28;20432;-75
2023/06/30 13:05:00;;;;;;;3.95;2.60;;;;;;;;;;5017844;28;20018;-74
2023/06/30 13:07:26;;;;;;;5.47;2.72;;;;;;;;;;5013951;28;20376;-75
2023/06/30 13:09:51;;;;;;;5.40;2.75;;;;;;;;;;5000245;28;20064;-75
2023/06/30 13:12:25;;;;;;;5.68;3.08;;;;;;;;;;5017668;28;20401;-74
2023/06/30 13:14:51;;;;;;;5.85;2.63;;;;;;;;;;5004701;28;20080;-74
2023/06/30 13:17:16;;;;;;;4.47;2.50;;;;;;;;;;4998669;28;20033;-75
2023/06/30 13:19:42;;;;;;;7.65;2.80;;;;;;;;;;4996848;28;20040;-75
2023/06/30 13:22:07;;;;;;;5.00;2.92;;;;;;;;;;5016248;28;20459;-75
2023/06/30 13:24:33;;;;;;;4.72;2.78;;;;;;;;;;5018208;28;20026;-75
2023/06/30 13:26:59;;;;;;;4.95;2.72;;;;;;;;;;5020048;28;20053;-75
2023/06/30 13:29:25;;;;;;;4.60;3.10;;;;;;;;;;5002651;28;20021;-75
2023/06/30 13:31:50;;;;;;;6.22;3.00;;;;;;;;;;5019248;28;20362;-74
2023/06/30 13:34:16;;;;;;;5.30;2.88;;;;;;;;;;5022766;28;20036;-77
2023/06/30 13:36:41;;;;;;;5.07;3.80;;;;;;;;;;5013434;28;20029;-75
2023/06/30 13:39:07;;;;;;;6.70;3.97;;;;;;;;;;5020783;28;20509;-74
2023/06/30 13:41:32;;;;;;;5.20;3.95;;;;;;;;;;5014663;28;20030;-74
2023/06/30 13:43:57;;;;;;;5.00;4.40;;;;;;;;;;5020262;28;20022;-75
2023/06/30 13:46:23;;;;;;;7.07;4.75;;;;;;;;;;5014947;28;20489;-74
2023/06/30 13:48:48;;;;;;;5.75;4.65;;;;;;;;;;5018811;28;20049;-76
2023/06/30 13:51:14;;;;;;;7.22;5.30;;;;;;;;;;4996545;28;20057;-75
2023/06/30 13:53:40;;;;;;;6.43;5.63;;;;;;;;;;4997318;28;20029;-74
2023/06/30 13:56:06;;;;;;;8.13;5.40;;;;;;;;;;4997773;28;20033;-75
2023/06/30 13:58:31;;;;;;;7.93;5.35;;;;;;;;;;5015295;28;20029;-74
2023/06/30 14:00:57;;;;;;;6.38;4.85;;;;;;;;;;5015250;28;20522;-74
2023/06/30 14:03:22;;;;;;;6.60;4.97;;;;;;;;;;5014629;28;20048;-74
2023/06/30 14:05:49;;;;;;;6.32;4.97;;;;;;;;;;5020008;28;20033;-74
2023/06/30 14:08:15;;;;;;;6.10;3.97;;;;;;;;;;5021157;28;20030;-75
2023/06/30 14:10:40;;;;;;;5.88;4.00;;;;;;;;;;5016281;28;20091;-74
2023/06/30 14:13:05;;;;;;;6.25;3.70;;;;;;;;;;5021104;28;20439;-74
2023/06/30 14:15:31;;;;;;;4.72;3.40;;;;;;;;;;5013305;28;20043;-73
2023/06/30 14:17:56;;;;;;;4.72;3.10;;;;;;;;;;5003386;28;20033;-74
2023/06/30 14:20:22;;;;;;;4.88;3.20;;;;;;;;;;4997462;28;20021;-74
2023/06/30 14:22:47;;;;;;;6.72;4.22;;;;;;;;;;5015445;28;20490;-74
2023/06/30 14:25:20;;;;;;;4.88;3.10;;;;;;;;;;5016242;28;20022;-74
2023/06/30 14:27:46;;;;;;;6.28;3.20;;;;;;;;;;5017038;28;20072;-74
2023/06/30 14:30:11;;;;;;;5.60;3.03;;;;;;;;;;5001513;28;20057;-75
2023/06/30 14:32:37;;;;;;;5.97;2.90;;;;;;;;;;5013121;28;20530;-74
2023/06/30 14:35:03;;;;;;;5.88;2.95;;;;;;;;;;5014516;28;20040;-75
2023/06/30 14:37:28;;;;;;;4.40;2.60;;;;;;;;;;5017205;28;20054;-76
2023/06/30 14:39:55;;;;;;;6.38;2.72;;;;;;;;;;5019288;28;20057;-74